createdAt,value
2019-05-17T00:02:18.404Z,94595.23
2019-05-17T00:04:46.929Z,94588.23
2019-05-17T00:07:11.227Z,94580.23
2019-05-17T00:09:37.683Z,94591.39
2019-05-17T00:12:04.039Z,94593.73
2019-05-17T00:16:57.273Z,94596.78
2019-05-17T00:19:23.157Z,94598.22
2019-05-17T00:21:49.575Z,94599.97
2019-05-17T00:24:18.082Z,94602.42
2019-05-17T00:26:42.439Z,94599.96
2019-05-17T00:29:08.951Z,94594.72
2019-05-17T00:31:37.039Z,94590.06
2019-05-17T00:34:01.586Z,94595.31
2019-05-17T00:36:27.928Z,94593.45
2019-05-17T00:38:56.647Z,94593.09
2019-05-17T00:41:20.654Z,94592.62
2019-05-17T00:43:46.990Z,94597.63
2019-05-17T00:46:13.328Z,94593.09
2019-05-17T00:48:39.720Z,94591.34
2019-05-17T00:51:10.195Z,94592.16
2019-05-17T00:53:32.410Z,94592.27
2019-05-17T00:55:58.749Z,94589.59
2019-05-17T00:58:26.287Z,94583.63
2019-05-17T01:00:51.407Z,94589.70
2019-05-17T01:03:17.751Z,94601.62
2019-05-17T01:05:44.081Z,94599.63
2019-05-17T01:08:10.418Z,94603.15
2019-05-17T01:10:37.115Z,94604.30
2019-05-17T01:13:03.155Z,94597.87
2019-05-17T01:15:29.482Z,94597.55
2019-05-17T01:17:56.279Z,94597.87
2019-05-17T01:20:22.230Z,94597.05
2019-05-17T01:22:48.566Z,94596.27
2019-05-17T01:25:16.896Z,94597.78
2019-05-17T01:27:41.272Z,94598.25
2019-05-17T01:30:07.757Z,94601.04
2019-05-17T01:35:00.425Z,94595.78
2019-05-17T01:37:27.708Z,94590.64
2019-05-17T01:39:53.113Z,94584.36
2019-05-17T01:42:19.441Z,94587.95
2019-05-17T01:44:47.254Z,94584.82
2019-05-17T01:47:12.104Z,94585.98
2019-05-17T01:49:38.456Z,94584.92
2019-05-17T01:52:07.301Z,94578.50
2019-05-17T01:56:57.484Z,94580.38
2019-05-17T01:59:23.815Z,94580.25
2019-05-17T02:01:50.209Z,94579.78
2019-05-17T02:04:17.344Z,94573.83
2019-05-17T02:06:42.879Z,94571.50
2019-05-17T02:09:09.155Z,94582.59
2019-05-17T02:11:37.228Z,94582.95
2019-05-17T02:14:01.827Z,94580.74
2019-05-17T02:18:54.528Z,94577.23
2019-05-17T02:21:20.865Z,94580.38
2019-05-17T02:23:47.188Z,94569.42
2019-05-17T02:26:13.559Z,94572.78
2019-05-17T02:28:41.472Z,94571.50
2019-05-17T02:31:06.319Z,94573.60
2019-05-17T02:33:33.298Z,94568.60
2019-05-17T02:35:59.098Z,94571.27
2019-05-17T02:38:25.481Z,94574.77
2019-05-17T02:40:53.548Z,94576.77
2019-05-17T02:43:18.137Z,94580.16
2019-05-17T02:45:44.480Z,94580.73
2019-05-17T02:48:13.415Z,94584.25
2019-05-17T02:50:37.180Z,94585.53
2019-05-17T02:53:04.748Z,94580.86
2019-05-17T02:55:32.250Z,94583.53
2019-05-17T02:57:56.226Z,94587.52
2019-05-17T03:00:23.985Z,94582.25
2019-05-17T03:02:48.870Z,94577.94
2019-05-17T03:05:15.269Z,94574.22
2019-05-17T03:07:43.951Z,94574.68
2019-05-17T03:10:18.370Z,94572.11
2019-05-17T03:12:34.265Z,94566.84
2019-05-17T03:15:03.766Z,94569.55
2019-05-17T03:17:26.967Z,94577.11
2019-05-17T03:19:53.340Z,94584.49
2019-05-17T03:22:22.876Z,94582.38
2019-05-17T03:24:45.989Z,94578.62
2019-05-17T03:27:13.539Z,94571.73
2019-05-17T03:32:08.734Z,94574.30
2019-05-17T03:34:37.134Z,94579.11
2019-05-17T03:36:58.133Z,94580.84
2019-05-17T03:39:24.470Z,94586.81
2019-05-17T03:41:53.566Z,94582.27
2019-05-17T03:44:17.232Z,94590.77
2019-05-17T03:46:43.568Z,94588.55
2019-05-17T03:49:12.843Z,94587.63
2019-05-17T03:54:02.681Z,94588.78
2019-05-17T03:56:29.020Z,94592.99
2019-05-17T03:58:55.351Z,94593.09
2019-05-17T04:01:23.223Z,94587.85
2019-05-17T04:03:48.142Z,94586.92
2019-05-17T04:06:14.488Z,94589.00
2019-05-17T04:08:42.506Z,94592.86
2019-05-17T04:11:20.444Z,94596.70
2019-05-17T04:13:33.890Z,94589.72
2019-05-17T04:16:03.509Z,94590.77
2019-05-17T04:18:26.318Z,94592.64
2019-05-17T04:20:53.008Z,94591.13
2019-05-17T04:23:19.111Z,94603.02
2019-05-17T04:25:45.414Z,94596.02
2019-05-17T04:28:13.588Z,94599.16
2019-05-17T04:30:38.129Z,94597.30
2019-05-17T04:33:04.473Z,94599.41
2019-05-17T04:35:32.714Z,94602.77
2019-05-17T04:37:57.189Z,94605.22
2019-05-17T04:40:23.526Z,94610.58
2019-05-17T04:42:52.550Z,94609.30
2019-05-17T04:45:16.358Z,94608.27
2019-05-17T04:47:44.311Z,94604.73
2019-05-17T04:50:09.210Z,94603.56
2019-05-17T04:52:35.553Z,94599.61
2019-05-17T04:55:04.030Z,94598.65
2019-05-17T04:57:28.366Z,94595.83
2019-05-17T04:59:54.698Z,94604.98
2019-05-17T05:02:23.545Z,94609.30
2019-05-17T05:04:47.422Z,94608.34
2019-05-17T05:07:14.023Z,94609.17
2019-05-17T05:09:42.753Z,94611.16
2019-05-17T05:12:06.703Z,94610.56
2019-05-17T05:14:33.153Z,94609.61
2019-05-17T05:16:59.268Z,94604.11
2019-05-17T05:19:25.682Z,94601.44
2019-05-17T05:21:52.142Z,94609.37
2019-05-17T05:24:18.313Z,94603.84
2019-05-17T05:26:44.640Z,94606.77
2019-05-17T05:29:12.753Z,94608.98
2019-05-17T05:34:04.858Z,94596.20
2019-05-17T05:36:32.838Z,94608.84
2019-05-17T05:38:57.571Z,94605.34
2019-05-17T05:41:23.950Z,94605.34
2019-05-17T05:43:52.448Z,94608.35
2019-05-17T05:46:16.631Z,94608.10
2019-05-17T05:48:42.966Z,94602.49
2019-05-17T05:53:35.700Z,94603.99
2019-05-17T05:56:03.302Z,94594.84
2019-05-17T05:58:28.407Z,94595.63
2019-05-17T06:00:54.744Z,94590.48
2019-05-17T06:03:22.533Z,94598.16
2019-05-17T06:05:47.465Z,94598.73
2019-05-17T06:08:13.810Z,94594.86
2019-05-17T06:10:42.623Z,94602.33
2019-05-17T06:15:33.007Z,94604.44
2019-05-17T06:17:59.347Z,94599.81
2019-05-17T06:20:25.746Z,94606.14
2019-05-17T06:22:52.098Z,94605.84
2019-05-17T06:25:18.471Z,94607.84
2019-05-17T06:27:47.582Z,94611.52
2019-05-17T06:30:13.935Z,94611.70
2019-05-17T06:32:43.378Z,94608.31
2019-05-17T06:37:33.027Z,94617.48
2019-05-17T06:40:02.082Z,94615.73
2019-05-17T06:42:37.380Z,94611.59
2019-05-17T06:44:52.413Z,94611.45
2019-05-17T06:47:18.461Z,94614.84
2019-05-17T06:49:44.808Z,94618.09
2019-05-17T06:52:11.626Z,94622.26
2019-05-17T06:54:37.572Z,94618.52
2019-05-17T06:57:03.900Z,94615.55
2019-05-17T06:59:30.250Z,94618.97
2019-05-17T07:01:56.680Z,94620.25
2019-05-17T07:04:23.009Z,94612.84
2019-05-17T07:06:49.585Z,94612.73
2019-05-17T07:09:15.867Z,94619.94
2019-05-17T07:11:42.433Z,94617.77
2019-05-17T07:14:09.425Z,94609.45
2019-05-17T07:16:35.167Z,94608.92
2019-05-17T07:19:01.556Z,94606.43
2019-05-17T07:21:29.725Z,94607.72
2019-05-17T07:23:54.248Z,94602.41
2019-05-17T07:26:20.636Z,94604.34
2019-05-17T07:31:13.462Z,94594.05
2019-05-17T07:33:39.993Z,94597.45
2019-05-17T07:36:06.166Z,94592.28
2019-05-17T07:38:32.495Z,94597.39
2019-05-17T07:40:59.518Z,94592.55
2019-05-17T07:43:25.235Z,94595.05
2019-05-17T07:45:51.525Z,94602.13
2019-05-17T07:48:19.982Z,94601.70
2019-05-17T07:50:44.375Z,94601.11
2019-05-17T07:53:10.744Z,94600.91
2019-05-17T07:55:37.098Z,94602.20
2019-05-17T07:58:03.530Z,94605.32
2019-05-17T08:00:30.546Z,94608.65
2019-05-17T08:02:56.150Z,94607.94
2019-05-17T08:05:22.558Z,94609.09
2019-05-17T08:07:49.976Z,94614.54
2019-05-17T08:10:15.240Z,94610.53
2019-05-17T08:12:41.608Z,94598.96
2019-05-17T08:15:10.432Z,94594.50
2019-05-17T08:17:34.271Z,94590.09
2019-05-17T08:20:00.958Z,94593.78
2019-05-17T08:22:29.248Z,94589.25
2019-05-17T08:24:53.393Z,94590.26
2019-05-17T08:27:20.210Z,94588.55
2019-05-17T08:29:46.119Z,94578.56
2019-05-17T08:32:12.457Z,94578.22
2019-05-17T08:34:40.086Z,94574.85
2019-05-17T08:37:09.463Z,94571.52
2019-05-17T08:39:34.609Z,94577.94
2019-05-17T08:42:01.325Z,94576.02
2019-05-17T08:44:27.289Z,94575.36
2019-05-17T08:46:53.669Z,94574.37
2019-05-17T08:49:20.255Z,94573.78
2019-05-17T08:51:46.375Z,94573.33
2019-05-17T08:54:12.763Z,94572.66
2019-05-17T08:56:40.201Z,94572.09
2019-05-17T08:59:05.442Z,94564.94
2019-05-17T09:01:31.849Z,94565.14
2019-05-17T09:03:59.907Z,94559.87
2019-05-17T09:06:24.556Z,94557.27
2019-05-17T09:08:50.905Z,94564.61
2019-05-17T09:11:19.542Z,94556.95
2019-05-17T09:13:54.647Z,94559.20
2019-05-17T09:16:10.724Z,94558.94
2019-05-17T09:18:36.294Z,94562.34
2019-05-17T09:21:02.635Z,94554.88
2019-05-17T09:23:30.452Z,94556.27
2019-05-17T09:25:55.354Z,94557.75
2019-05-17T09:28:21.824Z,94558.22
2019-05-17T09:33:14.560Z,94550.33
2019-05-17T09:35:41.232Z,94550.33
2019-05-17T09:38:09.808Z,94555.56
2019-05-17T09:40:33.690Z,94557.80
2019-05-17T09:43:00.577Z,94546.41
2019-05-17T09:45:26.423Z,94537.94
2019-05-17T09:47:52.787Z,94539.47
2019-05-17T09:50:19.998Z,94542.63
2019-05-17T09:55:12.180Z,94547.75
2019-05-17T09:57:40.915Z,94546.16
2019-05-17T10:00:04.912Z,94546.18
2019-05-17T10:02:31.368Z,94543.64
2019-05-17T10:04:59.759Z,94546.23
2019-05-17T10:07:24.107Z,94540.69
2019-05-17T10:09:50.498Z,94523.47
2019-05-17T10:12:16.848Z,94523.47
2019-05-17T10:14:43.202Z,94537.05
2019-05-17T10:17:09.933Z,94529.95
2019-05-17T10:19:35.965Z,94533.75
2019-05-17T10:22:02.331Z,94526.86
2019-05-17T10:24:37.831Z,94523.67
2019-05-17T10:26:55.105Z,94532.20
2019-05-17T10:29:21.431Z,94532.20
2019-05-17T10:31:50.301Z,94527.09
2019-05-17T10:34:14.196Z,94544.03
2019-05-17T10:36:40.863Z,94534.27
2019-05-17T10:39:07.264Z,94534.38
2019-05-17T10:41:33.632Z,94522.72
2019-05-17T10:43:59.963Z,94522.72
2019-05-17T10:46:26.343Z,94517.20
2019-05-17T10:48:52.650Z,94513.19
2019-05-17T10:51:20.315Z,94513.19
2019-05-17T10:53:45.419Z,94526.73
2019-05-17T10:56:11.746Z,94522.46
2019-05-17T10:58:39.894Z,94522.46
2019-05-17T11:01:04.507Z,94523.38
2019-05-17T11:03:30.865Z,94522.38
2019-05-17T11:05:59.535Z,94529.20
2019-05-17T11:08:23.602Z,94525.13
2019-05-17T11:10:50.232Z,94514.61
2019-05-17T11:13:16.396Z,94517.89
2019-05-17T11:15:42.758Z,94515.08
2019-05-17T11:18:09.198Z,94499.33
2019-05-17T11:20:35.561Z,94499.33
2019-05-17T11:23:01.949Z,94510.48
2019-05-17T11:25:28.357Z,94510.48
2019-05-17T11:27:54.656Z,94493.68
2019-05-17T11:30:20.984Z,94486.52
2019-05-17T11:35:18.859Z,94501.26
2019-05-17T11:37:43.867Z,94499.44
2019-05-17T11:40:10.271Z,94505.56
2019-05-17T11:42:36.601Z,94499.55
2019-05-17T11:45:03.016Z,94499.55
2019-05-17T11:47:29.341Z,94489.95
2019-05-17T11:49:55.663Z,94489.95
2019-05-17T11:52:22.063Z,94501.66
2019-05-17T11:54:48.422Z,94503.72
2019-05-17T11:57:14.790Z,94506.41
2019-05-17T11:59:41.278Z,94511.92
2019-05-17T12:02:07.761Z,94497.94
2019-05-17T12:04:34.122Z,94503.23
2019-05-17T12:07:00.493Z,94498.95
2019-05-17T12:09:37.035Z,94501.89
2019-05-17T12:11:53.165Z,94497.96
2019-05-17T12:14:19.513Z,94494.64
2019-05-17T12:16:45.886Z,94495.12
2019-05-17T12:19:12.229Z,94492.92
2019-05-17T12:21:38.636Z,94497.98
2019-05-17T12:24:05.005Z,94486.53
2019-05-17T12:26:31.440Z,94492.70
2019-05-17T12:28:57.799Z,94488.33
2019-05-17T12:31:24.214Z,94488.52
2019-05-17T12:33:50.547Z,94489.57
2019-05-17T12:36:16.943Z,94480.74
2019-05-17T12:38:43.306Z,94476.25
2019-05-17T12:41:09.656Z,94475.95
2019-05-17T12:43:36.037Z,94474.19
2019-05-17T12:46:02.404Z,94473.20
2019-05-17T12:48:28.757Z,94468.80
2019-05-17T12:50:55.160Z,94471.14
2019-05-17T12:53:21.490Z,94461.78
2019-05-17T12:55:47.886Z,94463.42
2019-05-17T12:58:14.250Z,94465.58
2019-05-17T13:00:40.588Z,94463.98
2019-05-17T13:03:06.938Z,94468.91
2019-05-17T13:05:33.430Z,94465.73
2019-05-17T13:07:59.769Z,94455.39
2019-05-17T13:10:26.111Z,94455.39
2019-05-17T13:12:52.510Z,94441.45
2019-05-17T13:15:18.840Z,94440.20
2019-05-17T13:17:45.395Z,94440.20
2019-05-17T13:20:11.729Z,94393.60
2019-05-17T13:22:38.034Z,94428.55
2019-05-17T13:25:04.391Z,94428.05
2019-05-17T13:27:30.774Z,94428.05
2019-05-17T13:29:57.181Z,94440.52
2019-05-17T13:32:23.591Z,94432.98
2019-05-17T13:34:50.001Z,94425.94
2019-05-17T13:37:17.368Z,94427.02
2019-05-17T13:39:42.802Z,94437.62
2019-05-17T13:42:09.147Z,94452.23
2019-05-17T13:44:35.513Z,94452.38
2019-05-17T13:47:01.874Z,94452.38
2019-05-17T13:49:28.226Z,94457.91
2019-05-17T13:51:54.657Z,94431.08
2019-05-17T13:54:21.003Z,94448.75
2019-05-17T13:56:47.346Z,94451.55
2019-05-17T14:01:40.264Z,94452.78
2019-05-17T14:04:06.612Z,94463.19
2019-05-17T14:06:33.032Z,94475.47
2019-05-17T14:08:59.466Z,94453.77
2019-05-17T14:11:25.808Z,94453.77
2019-05-17T14:13:52.202Z,94474.64
2019-05-17T14:16:18.591Z,94478.73
2019-05-17T14:18:44.949Z,94485.02
2019-05-17T14:21:11.406Z,94483.67
2019-05-17T14:23:37.749Z,94482.80
2019-05-17T14:26:04.299Z,94481.56
2019-05-17T14:28:30.725Z,94489.50
2019-05-17T14:30:57.043Z,94491.61
2019-05-17T14:35:49.730Z,94512.76
2019-05-17T14:38:16.257Z,94513.20
2019-05-17T14:43:09.133Z,94522.01
2019-05-17T14:45:35.474Z,94527.59
2019-05-17T14:48:01.898Z,94536.45
2019-05-17T14:50:28.210Z,94540.67
2019-05-17T14:52:54.580Z,94542.56
2019-05-17T14:55:20.969Z,94543.60
2019-05-17T14:57:47.347Z,94544.58
2019-05-17T15:00:13.711Z,94540.61
2019-05-17T15:02:40.163Z,94543.48
2019-05-17T15:05:06.499Z,94543.09
2019-05-17T15:07:32.946Z,94524.48
2019-05-17T15:09:59.328Z,94516.98
2019-05-17T15:12:28.809Z,94500.98
2019-05-17T15:14:52.137Z,94501.20
2019-05-17T15:17:18.537Z,94509.52
2019-05-17T15:19:44.997Z,94519.22
2019-05-17T15:22:11.445Z,94525.73
2019-05-17T15:24:37.961Z,94516.82
2019-05-17T15:27:06.195Z,94509.45
2019-05-17T15:29:30.729Z,94520.07
2019-05-17T15:31:57.366Z,94518.81
2019-05-17T15:34:23.703Z,94516.73
2019-05-17T15:36:50.128Z,94509.30
2019-05-17T15:39:16.539Z,94511.41
2019-05-17T15:41:43.156Z,94514.09
2019-05-17T15:44:09.443Z,94513.61
2019-05-17T15:46:36.065Z,94510.02
2019-05-17T15:49:02.412Z,94505.68
2019-05-17T15:51:28.799Z,94515.19
2019-05-17T15:53:55.264Z,94509.74
2019-05-17T15:56:21.630Z,94505.39
2019-05-17T15:58:48.227Z,94512.67
2019-05-17T16:01:14.586Z,94512.61
2019-05-17T16:03:40.964Z,94499.16
2019-05-17T16:06:07.350Z,94490.69
2019-05-17T16:08:33.726Z,94493.45
2019-05-17T16:11:00.133Z,94503.06
2019-05-17T16:13:26.499Z,94519.15
2019-05-17T16:15:52.847Z,94528.34
2019-05-17T16:18:19.253Z,94525.69
2019-05-17T16:20:45.633Z,94529.28
2019-05-17T16:23:12.055Z,94532.97
2019-05-17T16:28:04.919Z,94527.19
2019-05-17T16:30:31.290Z,94529.30
2019-05-17T16:32:57.687Z,94533.80
2019-05-17T16:35:24.050Z,94535.84
2019-05-17T16:37:50.460Z,94538.55
2019-05-17T16:40:17.017Z,94542.77
2019-05-17T16:42:43.346Z,94542.69
2019-05-17T16:45:09.739Z,94543.91
2019-05-17T16:47:36.113Z,94545.55
2019-05-17T16:50:02.617Z,94549.34
2019-05-17T16:52:29.159Z,94544.46
2019-05-17T16:54:55.487Z,94543.33
2019-05-17T16:57:21.835Z,94548.41
2019-05-17T16:59:48.322Z,94543.92
2019-05-17T17:02:14.867Z,94539.45
2019-05-17T17:04:41.431Z,94539.85
2019-05-17T17:07:07.766Z,94549.63
2019-05-17T17:09:34.137Z,94542.63
2019-05-17T17:12:00.496Z,94539.11
2019-05-17T17:14:26.918Z,94568.93
2019-05-17T17:16:53.295Z,94579.84
2019-05-17T17:19:19.797Z,94575.30
2019-05-17T17:21:46.157Z,94569.80
2019-05-17T17:24:12.482Z,94563.78
2019-05-17T17:26:39.123Z,94563.23
2019-05-17T17:29:05.535Z,94567.92
2019-05-17T17:31:31.904Z,94563.12
2019-05-17T17:33:58.264Z,94569.28
2019-05-17T17:36:24.709Z,94571.25
2019-05-17T17:38:51.035Z,94570.23
2019-05-17T17:41:17.362Z,94575.11
2019-05-17T17:43:57.515Z,94581.16
2019-05-17T17:46:11.322Z,94582.92
2019-05-17T17:48:36.491Z,94577.56
2019-05-17T17:51:02.810Z,94579.80
2019-05-17T17:53:29.215Z,94583.31
2019-05-17T17:55:55.494Z,94579.24
2019-05-17T17:58:21.917Z,94578.66
2019-05-17T18:00:48.257Z,94574.51
2019-05-17T18:03:14.770Z,94576.73
2019-05-17T18:05:41.151Z,94575.44
2019-05-17T18:08:07.614Z,94572.98
2019-05-17T18:10:33.964Z,94577.73
2019-05-17T18:13:00.418Z,94576.09
2019-05-17T18:15:26.764Z,94577.86
2019-05-17T18:17:53.080Z,94565.23
2019-05-17T18:20:19.430Z,94569.60
2019-05-17T18:22:45.789Z,94567.14
2019-05-17T18:25:12.236Z,94569.37
2019-05-17T18:27:38.529Z,94578.19
2019-05-17T18:30:04.888Z,94582.61
2019-05-17T18:32:31.217Z,94580.03
2019-05-17T18:34:57.756Z,94574.70
2019-05-17T18:37:24.134Z,94574.85
2019-05-17T18:39:50.617Z,94567.94
2019-05-17T18:42:16.977Z,94572.34
2019-05-17T18:44:43.389Z,94581.09
2019-05-17T18:47:09.788Z,94574.77
2019-05-17T18:49:36.110Z,94580.39
2019-05-17T18:52:02.472Z,94576.94
2019-05-17T18:54:28.828Z,94574.68
2019-05-17T18:56:55.204Z,94575.77
2019-05-17T18:59:21.535Z,94574.83
2019-05-17T19:01:48.054Z,94583.70
2019-05-17T19:04:14.431Z,94583.50
2019-05-17T19:06:40.888Z,94584.38
2019-05-17T19:09:07.231Z,94590.62
2019-05-17T19:11:33.765Z,94588.71
2019-05-17T19:14:00.155Z,94593.30
2019-05-17T19:16:26.512Z,94594.59
2019-05-17T19:18:52.813Z,94602.94
2019-05-17T19:21:21.886Z,94609.88
2019-05-17T19:23:48.216Z,94609.63
2019-05-17T19:26:14.553Z,94613.30
2019-05-17T19:28:40.952Z,94620.25
2019-05-17T19:31:07.355Z,94628.59
2019-05-17T19:33:33.700Z,94629.78
2019-05-17T19:36:00.080Z,94629.95
2019-05-17T19:40:52.786Z,94635.86
2019-05-17T19:43:19.143Z,94637.83
2019-05-17T19:45:45.577Z,94639.16
2019-05-17T19:48:11.976Z,94636.02
2019-05-17T19:50:38.307Z,94639.67
2019-05-17T19:53:04.716Z,94639.72
2019-05-17T19:55:33.337Z,94638.75
2019-05-17T19:57:57.369Z,94636.08
2019-05-17T20:00:26.110Z,94633.68
2019-05-17T20:02:52.486Z,94635.64
2019-05-17T20:05:18.844Z,94631.00
2019-05-17T20:07:45.204Z,94621.39
2019-05-17T20:10:11.540Z,94622.35
2019-05-17T20:12:37.941Z,94621.31
2019-05-17T20:15:16.689Z,94610.17
2019-05-17T20:17:30.797Z,94601.55
2019-05-17T20:19:57.376Z,94603.06
2019-05-17T20:22:23.894Z,94605.03
2019-05-17T20:24:50.216Z,94607.53
2019-05-17T20:27:16.643Z,94597.34
2019-05-17T20:29:43.179Z,94587.77
2019-05-17T20:32:09.573Z,94586.16
2019-05-17T20:34:35.916Z,94589.91
2019-05-17T20:37:02.281Z,94592.34
2019-05-17T20:39:28.684Z,94599.03
2019-05-17T20:41:57.419Z,94605.96
2019-05-17T20:44:21.414Z,94585.27
2019-05-17T20:49:14.143Z,94584.70
2019-05-17T20:51:40.554Z,94573.38
2019-05-17T20:54:06.995Z,94578.84
2019-05-17T20:56:33.518Z,94577.95
2019-05-17T20:58:59.729Z,94577.13
2019-05-17T21:01:26.053Z,94580.63
2019-05-17T21:03:52.493Z,94588.81
2019-05-17T21:06:18.824Z,94586.16
2019-05-17T21:08:46.472Z,94587.77
2019-05-17T21:11:11.607Z,94596.09
2019-05-17T21:13:37.930Z,94598.45
2019-05-17T21:16:04.297Z,94601.48
2019-05-17T21:18:30.811Z,94597.73
2019-05-17T21:20:57.244Z,94601.02
2019-05-17T21:23:23.583Z,94600.23
2019-05-17T21:25:50.089Z,94594.30
2019-05-17T21:28:16.636Z,94596.98
2019-05-17T21:30:45.447Z,94595.33
2019-05-17T21:33:11.768Z,94598.15
2019-05-17T21:35:38.313Z,94594.65
2019-05-17T21:38:04.671Z,94600.28
2019-05-17T21:40:31.035Z,94605.28
2019-05-17T21:42:57.342Z,94608.92
2019-05-17T21:45:23.845Z,94612.78
2019-05-17T21:47:50.338Z,94611.16
2019-05-17T21:50:16.889Z,94615.84
2019-05-17T21:52:43.172Z,94617.37
2019-05-17T21:55:09.630Z,94614.80
2019-05-17T21:57:36.027Z,94617.83
2019-05-17T22:00:02.484Z,94618.43
2019-05-17T22:02:28.793Z,94608.47
2019-05-17T22:04:55.162Z,94606.49
2019-05-17T22:07:21.725Z,94609.39
2019-05-17T22:09:48.056Z,94599.25
2019-05-17T22:12:14.391Z,94603.56
2019-05-17T22:14:40.752Z,94609.39
2019-05-17T22:17:07.184Z,94605.92
2019-05-17T22:19:33.513Z,94602.88
2019-05-17T22:21:59.996Z,94601.84
2019-05-17T22:24:26.334Z,94597.73
2019-05-17T22:26:52.667Z,94590.52
2019-05-17T22:29:19.020Z,94590.02
2019-05-17T22:31:45.532Z,94590.52
2019-05-17T22:34:11.917Z,94585.26
2019-05-17T22:36:38.225Z,94582.94
2019-05-17T22:39:04.617Z,94570.08
2019-05-17T22:41:31.060Z,94571.14
2019-05-17T22:43:57.423Z,94569.95
2019-05-17T22:46:35.614Z,94565.75
2019-05-17T22:48:50.178Z,94567.04
2019-05-17T22:51:16.659Z,94571.84
2019-05-17T22:53:44.355Z,94567.86
2019-05-17T22:56:10.802Z,94564.71
2019-05-17T22:58:37.135Z,94558.99
2019-05-17T23:01:03.651Z,94561.23
2019-05-17T23:03:29.977Z,94565.33
2019-05-17T23:05:56.422Z,94567.77
2019-05-17T23:08:22.956Z,94572.44
2019-05-17T23:10:55.099Z,94574.56
2019-05-17T23:13:21.449Z,94570.69
2019-05-17T23:15:47.789Z,94569.89
2019-05-17T23:18:14.151Z,94581.69
2019-05-17T23:20:40.642Z,94587.15
2019-05-17T23:23:06.991Z,94579.35
2019-05-17T23:27:59.815Z,94593.48
2019-05-17T23:30:26.191Z,94590.79
2019-05-17T23:32:52.623Z,94597.08
2019-05-17T23:35:18.952Z,94601.39
2019-05-17T23:37:45.364Z,94597.78
2019-05-17T23:40:11.725Z,94602.45
2019-05-17T23:42:38.097Z,94604.56
2019-05-17T23:45:04.553Z,94607.36
2019-05-17T23:47:30.860Z,94611.35
2019-05-17T23:49:57.220Z,94613.78
2019-05-17T23:52:23.547Z,94612.97
2019-05-17T23:54:50.060Z,94606.55
2019-05-17T23:57:16.464Z,94610.27
2019-05-17T23:59:42.784Z,94617.19
